Time;durP1;ratioP1;P1;durP2;ratioP2;P2;SDS_P1;SDS_P2;PMS_P1;PMS_P2;Temp;Humidity;BMP_temperature;BMP_pressure;BME280_temperature;BME280_humidity;BME280_pressure;Samples;Min_cycle;Max_cycle;Signal;HPM_P1;HPM_P2
2023/06/07 00:00:52;;;;;;;4.53;3.33;;;21.60;58.20;;;;;;5011833;28;20203;-71
2023/06/07 00:03:21;;;;;;;3.53;3.23;;;21.50;58.20;;;;;;5012023;28;20230;-71
2023/06/07 00:05:48;;;;;;;3.73;3.43;;;21.50;58.40;;;;;;4993875;28;20255;-72
2023/06/07 00:08:17;;;;;;;4.43;2.97;;;21.50;58.50;;;;;;5002249;28;20234;-70
2023/06/07 00:10:44;;;;;;;4.23;3.43;;;21.40;58.60;;;;;;5013916;28;20667;-72
2023/06/07 00:13:12;;;;;;;4.40;3.53;;;21.40;58.80;;;;;;4997581;28;20200;-72
2023/06/07 00:15:38;;;;;;;3.47;3.17;;;21.30;59.00;;;;;;4994053;28;20619;-71
2023/06/07 00:18:07;;;;;;;3.60;3.30;;;21.30;59.20;;;;;;4995540;28;20660;-72
2023/06/07 00:20:35;;;;;;;3.47;2.90;;;21.20;59.30;;;;;;5002919;28;20203;-71
2023/06/07 00:23:04;;;;;;;4.70;3.43;;;21.10;59.50;;;;;;5013310;28;20207;-71
2023/06/07 00:25:31;;;;;;;8.07;2.97;;;21.10;59.70;;;;;;5012468;28;20238;-71
2023/06/07 00:27:58;;;;;;;4.03;3.30;;;21.00;59.80;;;;;;5013207;28;20229;-71
2023/06/07 00:30:25;;;;;;;5.43;3.47;;;21.00;59.90;;;;;;5013387;28;20574;-72
2023/06/07 00:32:52;;;;;;;3.50;3.17;;;21.00;60.00;;;;;;5012645;28;20213;-72
2023/06/07 00:35:18;;;;;;;5.10;3.00;;;21.00;60.20;;;;;;5013152;28;20227;-73
2023/06/07 00:37:47;;;;;;;3.60;3.30;;;21.00;60.10;;;;;;5004943;28;20671;-72
2023/06/07 00:40:14;;;;;;;3.63;3.33;;;21.00;60.10;;;;;;5011745;28;20303;-72
2023/06/07 00:42:41;;;;;;;3.50;3.20;;;21.00;60.30;;;;;;5012512;28;20785;-72
2023/06/07 00:45:09;;;;;;;3.37;3.07;;;21.00;60.40;;;;;;5012479;28;20231;-71
2023/06/07 00:47:37;;;;;;;3.57;3.27;;;20.90;60.40;;;;;;5006255;28;20200;-71
2023/06/07 00:50:06;;;;;;;3.27;2.97;;;21.00;60.40;;;;;;5012433;28;20805;-72
2023/06/07 00:52:34;;;;;;;3.07;2.87;;;20.90;60.40;;;;;;5012610;28;20203;-72
2023/06/07 00:55:03;;;;;;;3.47;3.10;;;20.90;60.70;;;;;;5012614;28;20726;-72
2023/06/07 00:57:32;;;;;;;4.43;3.47;;;20.90;60.70;;;;;;5012221;28;20206;-72
2023/06/07 01:00:00;;;;;;;3.37;3.07;;;20.90;60.90;;;;;;5012547;28;20200;-72
2023/06/07 01:02:29;;;;;;;3.63;3.10;;;20.90;60.90;;;;;;5012444;28;20206;-72
2023/06/07 01:04:56;;;;;;;3.70;2.93;;;20.90;60.90;;;;;;5002971;28;20213;-72
2023/06/07 01:07:25;;;;;;;3.50;3.17;;;20.90;61.00;;;;;;5001139;28;20203;-72
2023/06/07 01:09:53;;;;;;;3.80;3.47;;;20.80;61.10;;;;;;4996064;28;20668;-71
2023/06/07 01:12:23;;;;;;;4.23;3.30;;;20.80;62.10;;;;;;4992660;28;20231;-72
2023/06/07 01:14:51;;;;;;;3.93;3.33;;;20.80;61.50;;;;;;4992751;28;20663;-72
2023/06/07 01:17:24;;;;;;;3.20;2.90;;;20.80;61.60;;;;;;4992918;28;20586;-72
2023/06/07 01:19:53;;;;;;;3.50;3.20;;;20.70;61.50;;;;;;4993099;28;20212;-73
2023/06/07 01:22:22;;;;;;;3.43;3.13;;;20.70;61.60;;;;;;5011478;28;20230;-72
2023/06/07 01:24:50;;;;;;;4.20;3.37;;;20.70;61.80;;;;;;5012342;28;20690;-71
2023/06/07 01:27:21;;;;;;;3.53;3.13;;;20.60;61.80;;;;;;5017927;28;20547;-72
2023/06/07 01:29:50;;;;;;;4.37;3.17;;;20.60;61.60;;;;;;5026202;28;20258;-71
2023/06/07 01:32:18;;;;;;;3.47;3.17;;;20.60;62.00;;;;;;5029175;28;20290;-72
2023/06/07 01:34:46;;;;;;;3.50;3.20;;;20.50;62.10;;;;;;5026941;28;20227;-72
2023/06/07 01:37:13;;;;;;;3.60;3.17;;;20.50;62.20;;;;;;5033781;28;20271;-72
2023/06/07 01:39:41;;;;;;;3.40;3.10;;;20.50;62.30;;;;;;5032449;28;20314;-72
2023/06/07 01:42:10;;;;;;;4.17;3.40;;;20.40;62.60;;;;;;5014869;28;20399;-71
2023/06/07 01:44:39;;;;;;;3.33;3.03;;;20.40;62.60;;;;;;5011389;28;20202;-72
2023/06/07 01:47:07;;;;;;;3.20;2.90;;;20.40;62.60;;;;;;5009559;28;20353;-71
2023/06/07 01:49:35;;;;;;;3.40;3.10;;;20.40;62.60;;;;;;5011876;28;20213;-71
2023/06/07 01:52:02;;;;;;;3.80;3.30;;;20.30;62.50;;;;;;5012095;28;20295;-71
2023/06/07 01:54:29;;;;;;;3.63;3.33;;;20.30;62.50;;;;;;5011413;28;20217;-71
2023/06/07 01:57:08;;;;;;;3.60;3.30;;;20.30;62.50;;;;;;5009971;28;20294;-72
2023/06/07 01:59:46;;;;;;;7.20;3.30;;;20.30;63.00;;;;;;5007255;28;20232;-70
2023/06/07 02:02:20;;;;;;;3.90;3.60;;;20.30;63.00;;;;;;4999038;28;20201;-72
2023/06/07 02:04:49;;;;;;;5.57;3.43;;;20.20;62.80;;;;;;5011392;28;20218;-72
2023/06/07 02:07:23;;;;;;;3.93;3.57;;;20.20;62.80;;;;;;5011718;28;20703;-71
2023/06/07 02:09:51;;;;;;;6.30;3.80;;;20.10;62.80;;;;;;5011415;28;20699;-71
2023/06/07 02:12:19;;;;;;;3.67;3.27;;;20.10;62.90;;;;;;5008810;28;20207;-71
2023/06/07 02:14:52;;;;;;;3.63;3.27;;;20.00;63.00;;;;;;5010680;28;20200;-72
2023/06/07 02:17:19;;;;;;;3.60;3.30;;;20.00;63.30;;;;;;5011458;28;20793;-72
2023/06/07 02:19:46;;;;;;;3.57;3.27;;;20.00;63.40;;;;;;5011517;28;20241;-72
2023/06/07 02:22:13;;;;;;;3.93;3.53;;;19.90;63.50;;;;;;4996271;28;20815;-72
2023/06/07 02:24:41;;;;;;;3.60;3.30;;;19.90;63.90;;;;;;5009832;28;20226;-72
2023/06/07 02:27:08;;;;;;;4.37;3.97;;;19.90;64.00;;;;;;5011066;28;20482;-72
2023/06/07 02:29:35;;;;;;;4.50;3.60;;;19.80;64.00;;;;;;5010940;28;20207;-72
2023/06/07 02:32:04;;;;;;;5.50;3.83;;;19.80;64.20;;;;;;5011111;28;20682;-72
2023/06/07 02:34:32;;;;;;;4.10;3.70;;;19.80;64.30;;;;;;5010722;28;20249;-72
2023/06/07 02:37:00;;;;;;;4.80;3.90;;;19.70;64.20;;;;;;5011247;28;20203;-71
2023/06/07 02:39:27;;;;;;;4.03;3.63;;;19.70;64.40;;;;;;5011157;28;20207;-72
2023/06/07 02:41:54;;;;;;;4.57;4.10;;;19.70;64.70;;;;;;5010858;28;20207;-72
2023/06/07 02:44:21;;;;;;;3.80;3.50;;;19.60;64.70;;;;;;5008659;28;20298;-72
2023/06/07 02:46:47;;;;;;;4.63;3.47;;;19.60;64.70;;;;;;5011006;28;20215;-73
2023/06/07 02:49:16;;;;;;;4.47;4.07;;;19.60;64.80;;;;;;5011058;28;20203;-72
2023/06/07 02:51:43;;;;;;;3.67;3.37;;;19.60;64.90;;;;;;5010641;28;22017;-72
2023/06/07 02:54:10;;;;;;;3.87;3.47;;;19.60;65.00;;;;;;5010536;28;20254;-72
2023/06/07 02:56:37;;;;;;;4.23;3.57;;;19.60;65.20;;;;;;5014396;28;20203;-73
2023/06/07 02:59:04;;;;;;;5.73;4.10;;;19.60;65.30;;;;;;5009366;28;20203;-72
2023/06/07 03:01:33;;;;;;;4.97;3.60;;;19.50;65.20;;;;;;5014747;28;20210;-72
2023/06/07 03:03:59;;;;;;;4.60;4.20;;;19.50;65.30;;;;;;5014094;28;20854;-71
2023/06/07 03:06:29;;;;;;;3.90;3.60;;;19.50;65.30;;;;;;4996921;28;20763;-73
2023/06/07 03:08:56;;;;;;;4.03;3.63;;;19.50;65.50;;;;;;5000472;28;20207;-73
2023/06/07 03:11:23;;;;;;;3.67;3.37;;;19.40;65.50;;;;;;5012653;28;20679;-73
2023/06/07 03:13:50;;;;;;;4.60;3.40;;;19.40;65.70;;;;;;5014407;28;20211;-72
2023/06/07 03:16:17;;;;;;;3.67;3.37;;;19.40;65.90;;;;;;5014961;28;20200;-72
2023/06/07 03:18:43;;;;;;;4.40;3.80;;;19.30;65.90;;;;;;5014591;28;20213;-72
2023/06/07 03:21:10;;;;;;;4.03;3.63;;;19.30;66.00;;;;;;5013174;28;20313;-72
2023/06/07 03:23:38;;;;;;;4.00;3.60;;;19.30;66.30;;;;;;5014346;28;20202;-71
2023/06/07 03:26:07;;;;;;;5.30;4.00;;;19.20;66.30;;;;;;5014524;28;20230;-71
2023/06/07 03:28:34;;;;;;;4.10;3.70;;;19.20;66.50;;;;;;5013989;28;20462;-72
2023/06/07 03:31:01;;;;;;;4.50;4.10;;;19.20;66.60;;;;;;5014265;28;20200;-73
2023/06/07 03:33:28;;;;;;;3.87;3.47;;;19.10;66.70;;;;;;5013857;28;20242;-72
2023/06/07 03:35:56;;;;;;;4.10;3.70;;;19.10;66.90;;;;;;5013861;28;20291;-72
2023/06/07 03:38:22;;;;;;;4.30;3.90;;;19.10;66.70;;;;;;5014328;28;20609;-72
2023/06/07 03:40:51;;;;;;;4.43;3.87;;;19.10;66.90;;;;;;5014398;28;20211;-72
2023/06/07 03:43:17;;;;;;;4.90;3.70;;;19.10;67.00;;;;;;5013670;28;20464;-72
2023/06/07 03:45:44;;;;;;;4.43;3.93;;;19.00;66.90;;;;;;5013850;28;20218;-71
2023/06/07 03:48:11;;;;;;;3.70;3.40;;;19.10;66.90;;;;;;5013682;28;20199;-72
2023/06/07 03:50:38;;;;;;;4.20;3.80;;;19.00;67.60;;;;;;5013423;28;20199;-72
2023/06/07 03:53:05;;;;;;;3.97;3.57;;;19.00;66.80;;;;;;5013530;28;20207;-72
2023/06/07 03:55:33;;;;;;;5.97;3.60;;;19.00;66.80;;;;;;5013667;28;20330;-72
2023/06/07 03:58:01;;;;;;;3.63;3.33;;;19.00;66.70;;;;;;5013579;28;20223;-72
2023/06/07 04:00:28;;;;;;;4.50;3.30;;;19.10;66.70;;;;;;5012228;28;20199;-72
2023/06/07 04:02:55;;;;;;;4.37;3.90;;;19.10;66.60;;;;;;5013623;28;20298;-71
2023/06/07 04:05:24;;;;;;;4.60;3.53;;;19.10;66.40;;;;;;5012822;28;20585;-71
2023/06/07 04:07:53;;;;;;;3.30;3.00;;;19.10;66.50;;;;;;5002803;28;20232;-71
2023/06/07 04:10:19;;;;;;;3.90;3.50;;;19.10;66.50;;;;;;4994173;28;20255;-72
2023/06/07 04:12:46;;;;;;;3.80;3.40;;;19.10;66.50;;;;;;5011399;28;20207;-73
2023/06/07 04:15:14;;;;;;;4.60;4.20;;;19.10;66.80;;;;;;5013327;28;20485;-72
2023/06/07 04:17:41;;;;;;;4.27;3.87;;;19.10;67.20;;;;;;5013638;28;20204;-71
2023/06/07 04:20:09;;;;;;;4.10;3.70;;;19.10;67.60;;;;;;5011944;28;20218;-71
2023/06/07 04:22:36;;;;;;;4.43;4.00;;;19.10;67.70;;;;;;4994500;28;20255;-72
2023/06/07 04:25:03;;;;;;;7.27;3.97;;;19.10;68.10;;;;;;5004276;28;20227;-72
2023/06/07 04:27:30;;;;;;;9.83;4.47;;;19.10;68.50;;;;;;5013350;28;20235;-71
2023/06/07 04:30:01;;;;;;;7.40;4.23;;;19.10;68.90;;;;;;5013229;28;20642;-72
2023/06/07 04:32:30;;;;;;;6.33;4.33;;;19.20;68.90;;;;;;5013638;28;20231;-72
2023/06/07 04:34:57;;;;;;;4.10;3.70;;;19.20;69.20;;;;;;5001246;28;20477;-72
2023/06/07 04:37:25;;;;;;;4.17;3.63;;;19.10;69.10;;;;;;5009079;28;20556;-72
2023/06/07 04:39:52;;;;;;;5.53;4.50;;;19.20;69.30;;;;;;4997219;28;20451;-70
2023/06/07 04:42:20;;;;;;;4.33;3.90;;;19.20;69.10;;;;;;5002548;28;20207;-71
2023/06/07 04:44:50;;;;;;;9.43;4.07;;;19.20;69.30;;;;;;5012366;28;20209;-72
2023/06/07 04:47:17;;;;;;;10.57;6.07;;;19.20;69.50;;;;;;4994641;28;20223;-72
2023/06/07 04:49:46;;;;;;;13.27;5.70;;;19.30;69.80;;;;;;5012650;28;20250;-72
2023/06/07 04:52:13;;;;;;;5.90;5.30;;;19.40;70.10;;;;;;5003257;28;20207;-72
2023/06/07 04:54:46;;;;;;;6.90;4.30;;;19.30;70.20;;;;;;5011894;28;20253;-73
2023/06/07 04:57:13;;;;;;;9.03;5.67;;;19.40;70.40;;;;;;5012619;28;20195;-71
2023/06/07 04:59:42;;;;;;;7.83;5.50;;;19.50;71.40;;;;;;5012526;28;20199;-72
2023/06/07 05:02:10;;;;;;;5.53;4.67;;;19.50;70.80;;;;;;5010062;28;20199;-73
2023/06/07 05:04:38;;;;;;;9.73;5.00;;;19.60;70.60;;;;;;5012929;28;20214;-71
2023/06/07 05:07:07;;;;;;;8.90;4.93;;;19.60;70.20;;;;;;5013247;28;20237;-73
2023/06/07 05:09:34;;;;;;;5.90;3.83;;;19.60;70.20;;;;;;5011402;28;20195;-71
2023/06/07 05:12:01;;;;;;;5.30;4.10;;;19.70;69.90;;;;;;5011455;28;20302;-72
2023/06/07 05:14:28;;;;;;;5.03;4.10;;;19.80;70.00;;;;;;5013035;28;20655;-71
2023/06/07 05:16:54;;;;;;;4.03;3.63;;;19.80;69.80;;;;;;5013255;28;20234;-72
2023/06/07 05:19:21;;;;;;;4.07;3.73;;;19.90;69.20;;;;;;5012242;28;20199;-72
2023/06/07 05:21:48;;;;;;;6.63;4.40;;;19.90;68.80;;;;;;5013053;28;20333;-72
2023/06/07 05:24:16;;;;;;;5.20;3.70;;;20.00;68.50;;;;;;5008196;28;20196;-72
2023/06/07 05:26:43;;;;;;;4.40;4.00;;;20.00;68.20;;;;;;5012557;28;20225;-72
2023/06/07 05:29:10;;;;;;;4.37;3.97;;;20.10;68.00;;;;;;5013617;28;20525;-72
2023/06/07 05:31:37;;;;;;;4.07;3.67;;;20.10;68.90;;;;;;5002756;28;20598;-71
2023/06/07 05:34:04;;;;;;;4.60;3.70;;;20.20;69.40;;;;;;5004396;28;20234;-71
2023/06/07 05:36:34;;;;;;;4.33;3.90;;;20.30;68.70;;;;;;4993529;28;20299;-71
2023/06/07 05:39:01;;;;;;;4.40;3.53;;;20.40;68.10;;;;;;4993003;28;20207;-71
2023/06/07 05:41:29;;;;;;;4.13;3.73;;;20.40;68.60;;;;;;4998197;28;20615;-71
2023/06/07 05:43:56;;;;;;;4.40;4.00;;;20.50;68.40;;;;;;5003417;28;20208;-72
2023/06/07 05:46:23;;;;;;;4.57;3.90;;;20.60;68.20;;;;;;5008367;28;20547;-72
2023/06/07 05:48:50;;;;;;;4.20;3.80;;;20.60;67.50;;;;;;5012788;28;20203;-72
2023/06/07 05:51:17;;;;;;;6.47;4.67;;;20.70;67.30;;;;;;5012684;28;20261;-71
2023/06/07 05:53:45;;;;;;;3.97;3.60;;;20.80;67.90;;;;;;5012211;28;20195;-72
2023/06/07 05:56:16;;;;;;;3.83;3.40;;;20.80;68.40;;;;;;5012964;28;20271;-71
2023/06/07 05:58:44;;;;;;;4.90;3.90;;;20.90;68.50;;;;;;4999544;28;20234;-72
2023/06/07 06:01:13;;;;;;;3.67;3.37;;;21.00;68.60;;;;;;5005723;28;20230;-72
2023/06/07 06:03:40;;;;;;;4.80;3.77;;;21.10;68.40;;;;;;5002613;28;20211;-72
2023/06/07 06:06:16;;;;;;;7.13;4.10;;;21.10;68.30;;;;;;5010647;28;20397;-72
2023/06/07 06:08:44;;;;;;;4.57;3.73;;;21.20;68.20;;;;;;5007441;28;20229;-72
2023/06/07 06:11:12;;;;;;;4.10;3.67;;;21.30;68.10;;;;;;5012323;28;20302;-72
2023/06/07 06:13:39;;;;;;;5.57;3.27;;;21.30;67.90;;;;;;5012250;28;20207;-71
2023/06/07 06:16:07;;;;;;;3.83;3.13;;;21.40;68.00;;;;;;4992665;28;20258;-72
2023/06/07 06:18:34;;;;;;;7.03;3.63;;;21.50;68.10;;;;;;5010225;28;20200;-71
2023/06/07 06:21:01;;;;;;;3.83;3.53;;;21.60;68.30;;;;;;5011369;28;20227;-72
2023/06/07 06:23:28;;;;;;;4.53;3.67;;;21.70;68.20;;;;;;5011575;28;20219;-72
2023/06/07 06:25:55;;;;;;;3.57;3.27;;;21.70;67.90;;;;;;5011417;28;20314;-72
2023/06/07 06:28:22;;;;;;;3.80;2.87;;;21.80;67.70;;;;;;5010376;28;20547;-72
2023/06/07 06:30:49;;;;;;;3.70;3.40;;;21.90;67.50;;;;;;4991944;28;20219;-71
2023/06/07 06:33:17;;;;;;;3.80;3.50;;;22.00;67.40;;;;;;4993370;28;20210;-71
2023/06/07 06:35:44;;;;;;;4.03;3.63;;;22.10;67.40;;;;;;5010701;28;20290;-72
2023/06/07 06:38:11;;;;;;;4.13;3.70;;;22.10;67.10;;;;;;5010972;28;20195;-72
2023/06/07 06:40:38;;;;;;;4.70;4.20;;;22.10;66.80;;;;;;5011934;28;20671;-77
2023/06/07 06:43:05;;;;;;;4.17;3.80;;;22.20;67.20;;;;;;5011144;28;20203;-73
2023/06/07 06:45:32;;;;;;;4.10;3.70;;;22.30;66.70;;;;;;5010217;28;20241;-74
2023/06/07 06:47:59;;;;;;;3.87;3.50;;;22.40;66.60;;;;;;5011133;28;20695;-74
2023/06/07 06:50:29;;;;;;;4.13;3.73;;;22.50;66.20;;;;;;5011191;28;20338;-74
2023/06/07 06:52:56;;;;;;;3.50;3.20;;;22.50;65.70;;;;;;5011183;28;20207;-73
2023/06/07 06:55:22;;;;;;;3.70;3.07;;;22.60;66.00;;;;;;5011066;28;20217;-74
2023/06/07 06:57:50;;;;;;;4.23;3.07;;;22.70;65.80;;;;;;5029827;28;20224;-73
2023/06/07 07:00:18;;;;;;;4.47;3.10;;;22.80;65.80;;;;;;5035023;28;20198;-72
2023/06/07 07:02:44;;;;;;;3.40;3.10;;;22.80;65.10;;;;;;5035038;28;20227;-73
2023/06/07 07:05:11;;;;;;;3.43;3.07;;;23.00;65.70;;;;;;5017534;28;20212;-73
2023/06/07 07:07:39;;;;;;;3.20;2.90;;;23.00;65.40;;;;;;4999319;28;20238;-73
2023/06/07 07:10:08;;;;;;;3.07;2.80;;;23.10;65.50;;;;;;4991845;28;20214;-73
2023/06/07 07:12:36;;;;;;;3.30;3.00;;;23.20;65.60;;;;;;4991521;28;20232;-73
2023/06/07 07:15:04;;;;;;;3.73;3.37;;;23.30;64.80;;;;;;4991037;28;20212;-73
2023/06/07 07:17:31;;;;;;;3.13;2.90;;;23.40;64.70;;;;;;5008988;28;20684;-73
2023/06/07 07:19:58;;;;;;;3.50;3.00;;;23.50;63.90;;;;;;5010462;28;20239;-73
2023/06/07 07:22:26;;;;;;;3.53;3.23;;;23.50;63.70;;;;;;5010814;28;20711;-73
2023/06/07 07:24:54;;;;;;;3.13;2.70;;;23.60;63.10;;;;;;5010194;28;20237;-73
2023/06/07 07:27:22;;;;;;;4.50;3.27;;;23.60;64.60;;;;;;5010316;28;20222;-73
2023/06/07 07:29:49;;;;;;;4.13;3.07;;;23.80;63.80;;;;;;5010332;28;20207;-73
2023/06/07 07:32:16;;;;;;;2.90;2.60;;;23.80;63.70;;;;;;5010637;28;20647;-73
2023/06/07 07:34:43;;;;;;;3.47;3.10;;;23.90;62.90;;;;;;5004976;28;20203;-73
2023/06/07 07:37:10;;;;;;;3.60;3.10;;;24.00;63.10;;;;;;5010294;28;20195;-73
2023/06/07 07:39:38;;;;;;;3.23;2.93;;;24.10;63.00;;;;;;5002045;28;20211;-74
2023/06/07 07:42:07;;;;;;;3.17;2.70;;;24.20;63.10;;;;;;4993011;28;20203;-73
2023/06/07 07:44:34;;;;;;;3.20;3.00;;;24.30;62.90;;;;;;5010503;28;20203;-73
2023/06/07 07:47:01;;;;;;;2.87;2.57;;;24.40;62.50;;;;;;5015157;28;20214;-73
2023/06/07 07:49:28;;;;;;;3.50;3.20;;;24.50;61.70;;;;;;5011037;28;20230;-73
2023/06/07 07:51:55;;;;;;;2.83;2.63;;;24.50;60.90;;;;;;4996284;28;20243;-73
2023/06/07 07:54:22;;;;;;;2.77;2.57;;;24.60;61.40;;;;;;4995661;28;20266;-73
2023/06/07 07:56:49;;;;;;;3.27;2.90;;;24.70;61.60;;;;;;5001347;28;20286;-74
2023/06/07 07:59:17;;;;;;;3.17;2.80;;;24.80;60.50;;;;;;5015043;28;20266;-73
2023/06/07 08:01:45;;;;;;;2.37;2.20;;;24.90;60.80;;;;;;5014650;28;20318;-73
2023/06/07 08:04:12;;;;;;;2.57;2.37;;;24.90;60.80;;;;;;5014364;28;20206;-73
2023/06/07 08:06:39;;;;;;;3.00;2.70;;;25.00;60.40;;;;;;5010993;28;20699;-73
2023/06/07 08:09:06;;;;;;;4.50;2.63;;;25.10;60.30;;;;;;5014552;28;20241;-73
2023/06/07 08:11:33;;;;;;;3.17;2.90;;;25.20;59.70;;;;;;5014474;28;20204;-73
2023/06/07 08:13:59;;;;;;;4.43;2.80;;;25.20;59.70;;;;;;5014149;28;20213;-74
2023/06/07 08:16:29;;;;;;;2.33;2.17;;;25.20;60.20;;;;;;5013156;28;20672;-73
2023/06/07 08:18:57;;;;;;;2.50;2.30;;;25.30;59.60;;;;;;5014854;28;20204;-73
2023/06/07 08:21:24;;;;;;;2.23;2.13;;;25.50;60.10;;;;;;5014019;28;20233;-73
2023/06/07 08:23:52;;;;;;;2.40;2.20;;;25.60;59.10;;;;;;5014164;28;20211;-73
2023/06/07 08:26:19;;;;;;;2.73;2.33;;;25.60;58.50;;;;;;5014337;28;20227;-73
2023/06/07 08:28:46;;;;;;;2.60;2.40;;;25.60;58.00;;;;;;5014082;28;20215;-75
2023/06/07 08:31:13;;;;;;;2.67;2.40;;;25.70;58.50;;;;;;5014016;28;20556;-75
2023/06/07 08:33:41;;;;;;;2.93;2.60;;;25.80;58.70;;;;;;5013879;28;20269;-76
2023/06/07 08:36:08;;;;;;;2.30;2.10;;;25.80;57.90;;;;;;5014305;28;20205;-74
2023/06/07 08:38:38;;;;;;;2.77;2.33;;;26.00;58.40;;;;;;5013876;28;20679;-74
2023/06/07 08:41:05;;;;;;;2.13;1.93;;;26.00;58.10;;;;;;5014403;28;20636;-74
2023/06/07 08:43:32;;;;;;;2.50;2.07;;;26.10;57.40;;;;;;5014124;28;20208;-74
2023/06/07 08:46:03;;;;;;;2.27;1.97;;;26.20;57.20;;;;;;5013534;28;20207;-74
2023/06/07 08:48:32;;;;;;;2.20;2.00;;;26.30;57.70;;;;;;5014101;28;20231;-73
2023/06/07 08:51:02;;;;;;;2.00;1.80;;;26.30;57.60;;;;;;5014080;28;20215;-74
2023/06/07 08:53:35;;;;;;;2.30;1.70;;;26.50;57.00;;;;;;5013708;28;20227;-74
2023/06/07 08:56:03;;;;;;;1.73;1.63;;;26.50;56.60;;;;;;5013970;28;20217;-74
2023/06/07 08:58:30;;;;;;;2.07;1.97;;;26.70;56.20;;;;;;5013855;28;20212;-73
2023/06/07 09:00:59;;;;;;;2.67;2.00;;;26.70;55.70;;;;;;5013645;28;20244;-74
2023/06/07 09:03:27;;;;;;;2.83;1.50;;;26.80;55.60;;;;;;5012489;28;20273;-74
2023/06/07 09:05:56;;;;;;;1.90;1.80;;;26.80;56.30;;;;;;5013695;28;20290;-74
2023/06/07 09:08:24;;;;;;;1.80;1.70;;;26.90;55.70;;;;;;5012964;28;20223;-74
2023/06/07 09:10:51;;;;;;;1.60;1.50;;;27.00;55.40;;;;;;5013047;28;20203;-74
2023/06/07 09:13:20;;;;;;;2.00;1.90;;;27.10;56.10;;;;;;5013186;28;20209;-74
2023/06/07 09:15:49;;;;;;;2.30;2.10;;;27.20;55.40;;;;;;5011908;28;20218;-74
2023/06/07 09:18:16;;;;;;;2.87;1.80;;;27.30;55.50;;;;;;5012516;28;20250;-74
2023/06/07 09:20:43;;;;;;;2.00;1.90;;;27.40;55.20;;;;;;5012517;28;20594;-72
2023/06/07 09:23:14;;;;;;;1.50;1.40;;;27.40;55.00;;;;;;5012303;28;20243;-77
2023/06/07 09:25:44;;;;;;;1.80;1.70;;;27.50;55.30;;;;;;5012049;28;20258;-74
2023/06/07 09:28:13;;;;;;;2.23;2.03;;;27.60;54.80;;;;;;5012217;28;20242;-74
2023/06/07 09:30:54;;;;;;;1.60;1.50;;;27.70;54.80;;;;;;5011911;28;20237;-74
2023/06/07 09:33:29;;;;;;;1.60;1.50;;;27.80;54.10;;;;;;5012306;28;20258;-75
2023/06/07 09:36:04;;;;;;;1.70;1.57;;;27.90;53.60;;;;;;4995879;28;20236;-75
2023/06/07 09:38:32;;;;;;;1.83;1.40;;;27.90;53.90;;;;;;4992463;28;20244;-76
2023/06/07 09:41:02;;;;;;;1.90;1.67;;;28.00;53.10;;;;;;4992209;28;20242;-74
2023/06/07 09:43:42;;;;;;;1.97;1.87;;;28.10;53.40;;;;;;4992219;28;20334;-75
2023/06/07 09:46:09;;;;;;;2.13;1.97;;;28.10;53.00;;;;;;4992338;28;20214;-74
2023/06/07 09:48:45;;;;;;;2.50;1.90;;;28.20;52.60;;;;;;4992676;28;20231;-75
2023/06/07 09:51:12;;;;;;;3.03;1.77;;;28.20;51.30;;;;;;4992315;28;20210;-74
2023/06/07 09:53:51;;;;;;;3.03;2.10;;;28.20;52.80;;;;;;4992139;28;20590;-73
2023/06/07 09:56:20;;;;;;;2.10;1.90;;;28.30;53.10;;;;;;4992381;28;20202;-74
2023/06/07 09:58:49;;;;;;;2.30;2.10;;;28.50;52.20;;;;;;4991757;28;20748;-74
2023/06/07 10:01:16;;;;;;;1.80;1.70;;;28.50;52.20;;;;;;4992184;28;20246;-76
2023/06/07 10:03:47;;;;;;;2.10;2.00;;;28.70;52.00;;;;;;4991083;28;20665;-74
2023/06/07 10:06:17;;;;;;;2.50;2.00;;;28.70;50.20;;;;;;4991923;28;20246;-74
2023/06/07 10:08:45;;;;;;;2.20;2.00;;;28.60;51.00;;;;;;4991783;28;20237;-75
2023/06/07 10:11:14;;;;;;;2.10;2.00;;;28.70;50.40;;;;;;4991798;28;20209;-75
2023/06/07 10:13:44;;;;;;;1.97;1.87;;;28.80;51.50;;;;;;5006671;28;20207;-75
2023/06/07 10:16:13;;;;;;;2.10;2.00;;;28.80;50.50;;;;;;4993231;28;20210;-74
2023/06/07 10:18:42;;;;;;;2.07;1.97;;;28.80;49.90;;;;;;4991904;28;20717;-74
2023/06/07 10:21:15;;;;;;;2.70;2.20;;;28.80;50.90;;;;;;4993362;28;20709;-75
2023/06/07 10:23:48;;;;;;;2.50;2.30;;;28.70;50.90;;;;;;4992051;28;20240;-74
2023/06/07 10:26:21;;;;;;;2.33;2.17;;;28.60;50.50;;;;;;4992463;28;20230;-75
2023/06/07 10:28:54;;;;;;;2.70;2.50;;;28.60;50.30;;;;;;4991371;28;20340;-75
2023/06/07 10:31:24;;;;;;;2.43;2.23;;;28.60;50.60;;;;;;4998389;28;20226;-75
2023/06/07 10:33:53;;;;;;;2.87;2.60;;;28.50;50.80;;;;;;5011063;28;20635;-75
2023/06/07 10:36:23;;;;;;;2.30;2.10;;;28.50;50.00;;;;;;5011241;28;20244;-75
2023/06/07 10:38:51;;;;;;;2.37;2.17;;;28.60;50.00;;;;;;5011260;28;20190;-75
2023/06/07 10:41:18;;;;;;;3.30;2.20;;;28.80;51.20;;;;;;5010873;28;20210;-75
2023/06/07 10:43:46;;;;;;;2.63;2.20;;;29.00;50.30;;;;;;5010809;28;20245;-75
2023/06/07 10:46:23;;;;;;;2.23;2.13;;;29.10;50.00;;;;;;5011034;28;20242;-74
2023/06/07 10:48:50;;;;;;;2.73;2.40;;;29.20;49.60;;;;;;5011296;28;20653;-75
2023/06/07 10:51:19;;;;;;;2.63;2.43;;;29.30;49.70;;;;;;5011196;28;20210;-74
2023/06/07 10:53:50;;;;;;;2.50;2.30;;;29.40;49.10;;;;;;5010938;28;20562;-74
2023/06/07 10:56:36;;;;;;;3.20;2.30;;;29.50;48.20;;;;;;5010629;28;20221;-75
2023/06/07 10:59:30;;;;;;;2.83;2.50;;;29.40;47.10;;;;;;5011073;28;20207;-75
2023/06/07 11:02:23;;;;;;;2.30;2.10;;;29.40;46.60;;;;;;4964426;28;20682;-75
2023/06/07 11:04:54;;;;;;;2.93;2.63;;;29.40;47.00;;;;;;5009019;28;20195;-75
2023/06/07 11:07:22;;;;;;;2.70;2.50;;;29.40;48.70;;;;;;5011128;28;20227;-75
2023/06/07 11:09:50;;;;;;;2.80;2.60;;;29.50;48.10;;;;;;5011116;28;20219;-75
2023/06/07 11:12:54;;;;;;;2.90;2.60;;;29.60;47.30;;;;;;5011381;28;20287;-75
2023/06/07 11:15:24;;;;;;;2.77;2.57;;;29.60;47.50;;;;;;5011669;28;20215;-75
2023/06/07 11:17:53;;;;;;;2.90;2.70;;;29.70;48.20;;;;;;5015480;28;20199;-75
2023/06/07 11:20:51;;;;;;;3.03;2.83;;;29.80;47.00;;;;;;5011442;28;20229;-74
2023/06/07 11:23:25;;;;;;;2.60;2.40;;;29.90;47.30;;;;;;5016099;28;20242;-74
2023/06/07 11:25:55;;;;;;;3.03;2.83;;;30.00;47.60;;;;;;5002091;28;20232;-75
2023/06/07 11:28:22;;;;;;;3.00;2.80;;;29.90;46.70;;;;;;4996052;28;20223;-74
2023/06/07 11:30:51;;;;;;;2.90;2.47;;;29.90;46.80;;;;;;4996207;28;20232;-74
2023/06/07 11:33:21;;;;;;;2.63;2.43;;;29.80;47.20;;;;;;5003007;28;20207;-75
2023/06/07 11:35:48;;;;;;;2.80;2.60;;;29.90;46.10;;;;;;4999926;28;20210;-75
2023/06/07 11:38:16;;;;;;;2.70;2.50;;;29.90;46.50;;;;;;4995224;28;20303;-73
2023/06/07 11:40:43;;;;;;;2.80;2.60;;;30.00;46.60;;;;;;4994697;28;20207;-75
2023/06/07 11:43:11;;;;;;;2.60;2.40;;;30.20;46.80;;;;;;4994914;28;20238;-74
2023/06/07 11:45:40;;;;;;;3.17;2.87;;;30.30;46.30;;;;;;4994235;28;20211;-74
2023/06/07 11:48:08;;;;;;;2.77;2.57;;;30.40;46.10;;;;;;4994916;28;20294;-73
2023/06/07 11:50:39;;;;;;;3.00;2.77;;;30.50;45.30;;;;;;5012248;28;20293;-74
2023/06/07 11:53:08;;;;;;;2.73;2.53;;;30.60;45.90;;;;;;5014269;28;20199;-75
2023/06/07 11:55:36;;;;;;;2.90;2.70;;;30.60;46.10;;;;;;5013543;28;20246;-74
2023/06/07 11:58:04;;;;;;;3.07;2.87;;;30.60;46.40;;;;;;5014171;28;20215;-74
2023/06/07 12:00:32;;;;;;;3.13;2.80;;;30.60;46.10;;;;;;5014734;28;20218;-75
2023/06/07 12:02:59;;;;;;;3.27;2.97;;;30.50;45.70;;;;;;5014013;28;20559;-74
2023/06/07 12:05:31;;;;;;;3.40;3.10;;;30.50;46.20;;;;;;5010248;28;20199;-75
2023/06/07 12:08:03;;;;;;;3.40;3.20;;;30.50;46.60;;;;;;4995454;28;20238;-76
2023/06/07 12:10:30;;;;;;;3.27;3.07;;;30.60;46.30;;;;;;5007563;28;20222;-76
2023/06/07 12:13:11;;;;;;;3.13;2.83;;;30.70;46.60;;;;;;5013819;28;20321;-75
2023/06/07 12:15:44;;;;;;;3.60;2.50;;;30.80;45.80;;;;;;5013607;28;20297;-75
2023/06/07 12:18:13;;;;;;;3.10;2.90;;;30.90;45.50;;;;;;5013475;28;20210;-76
2023/06/07 12:20:41;;;;;;;4.27;3.00;;;30.90;45.00;;;;;;5013618;28;20207;-75
2023/06/07 12:23:10;;;;;;;3.17;2.90;;;31.00;44.30;;;;;;5013057;28;20306;-74
2023/06/07 12:25:37;;;;;;;2.80;2.60;;;31.10;44.20;;;;;;5012850;28;20569;-76
2023/06/07 12:28:06;;;;;;;5.07;3.00;;;31.10;44.40;;;;;;5013351;28;20238;-77
2023/06/07 12:30:34;;;;;;;3.20;3.00;;;31.20;44.50;;;;;;5013415;28;20234;-76
2023/06/07 12:33:01;;;;;;;3.37;3.07;;;31.20;44.90;;;;;;5013525;28;20677;-73
2023/06/07 12:35:39;;;;;;;3.23;3.00;;;31.10;44.80;;;;;;5028145;28;20234;-76
2023/06/07 12:38:06;;;;;;;3.23;3.00;;;31.00;45.10;;;;;;5013159;28;20230;-74
2023/06/07 12:40:35;;;;;;;3.20;3.00;;;31.00;45.70;;;;;;5013518;28;20659;-73
2023/06/07 12:43:02;;;;;;;6.20;3.23;;;31.10;45.70;;;;;;5013194;28;20230;-75
2023/06/07 12:45:29;;;;;;;3.20;3.00;;;31.30;45.40;;;;;;5012652;28;20214;-74
2023/06/07 12:47:56;;;;;;;3.10;2.90;;;31.30;44.80;;;;;;5013070;28;20559;-76
2023/06/07 12:50:23;;;;;;;3.37;3.07;;;31.40;44.00;;;;;;5013155;28;20230;-75
2023/06/07 12:52:51;;;;;;;3.10;2.90;;;31.40;44.50;;;;;;5012898;28;20210;-74
2023/06/07 12:55:18;;;;;;;3.10;2.80;;;31.50;44.10;;;;;;5012923;28;20207;-75